Time;durP1;ratioP1;P1;durP2;ratioP2;P2;SDS_P1;SDS_P2;PMS_P1;PMS_P2;Temp;Humidity;BMP_temperature;BMP_pressure;BME280_temperature;BME280_humidity;BME280_pressure;Samples;Min_cycle;Max_cycle;Signal;HPM_P1;HPM_P2
2023/06/15 00:01:05;;;;;;;5.90;3.25;;;;;;;25.35;37.64;99576.16;4515656;31;33731;-70
2023/06/15 00:03:33;;;;;;;5.43;3.05;;;;;;;25.35;37.61;99573.44;4515221;31;33789;-71
2023/06/15 00:06:01;;;;;;;5.25;3.20;;;;;;;25.34;37.61;99566.31;4515029;31;33409;-71
2023/06/15 00:08:28;;;;;;;6.12;2.80;;;;;;;25.34;37.61;99571.78;4515307;31;34543;-71
2023/06/15 00:10:56;;;;;;;5.40;3.47;;;;;;;25.33;37.65;99564.66;4494383;31;33872;-71
2023/06/15 00:13:23;;;;;;;5.30;2.95;;;;;;;25.33;37.65;99566.56;4483454;32;34560;-71
2023/06/15 00:15:51;;;;;;;4.72;3.03;;;;;;;25.33;37.64;99570.12;4483733;32;33682;-70
2023/06/15 00:18:21;;;;;;;5.05;3.20;;;;;;;25.33;37.69;99566.56;4483450;32;33928;-69
2023/06/15 00:20:48;;;;;;;6.72;3.60;;;;;;;25.33;37.71;99569.31;4483452;32;33917;-70
2023/06/15 00:23:17;;;;;;;4.70;3.08;;;;;;;25.32;37.66;99570.34;4483403;32;34149;-70
2023/06/15 00:25:45;;;;;;;5.43;3.00;;;;;;;25.32;37.66;99565.75;4483408;32;33549;-70
2023/06/15 00:28:12;;;;;;;5.82;3.12;;;;;;;25.32;37.66;99565.75;4483393;32;33962;-71
2023/06/15 00:30:40;;;;;;;4.43;2.45;;;;;;;25.32;37.65;99565.75;4483255;32;34801;-70
2023/06/15 00:33:07;;;;;;;5.72;2.80;;;;;;;25.32;37.65;99564.91;4483399;32;33866;-69
2023/06/15 00:35:35;;;;;;;5.22;3.10;;;;;;;25.30;37.62;99558.87;4483214;32;33311;-66
2023/06/15 00:38:03;;;;;;;4.35;2.67;;;;;;;25.30;37.64;99565.16;4483360;32;34254;-70
2023/06/15 00:40:32;;;;;;;4.82;2.78;;;;;;;25.32;37.62;99567.63;4483283;32;33709;-70
2023/06/15 00:42:59;;;;;;;5.70;3.08;;;;;;;25.30;37.70;99562.41;4483168;32;34524;-70
2023/06/15 00:45:30;;;;;;;5.18;2.90;;;;;;;25.29;37.77;99555.31;4482993;32;33236;-70
2023/06/15 00:47:58;;;;;;;5.47;3.45;;;;;;;25.30;37.71;99565.16;4482898;32;34039;-70
2023/06/15 00:50:29;;;;;;;6.05;3.45;;;;;;;25.29;37.76;99562.66;4483305;32;34723;-68
2023/06/15 00:53:03;;;;;;;5.12;2.90;;;;;;;25.29;37.74;99568.97;4482923;32;33495;-70
2023/06/15 00:55:34;;;;;;;4.05;2.50;;;;;;;25.29;37.71;99559.94;4482996;32;34325;-71
2023/06/15 00:58:02;;;;;;;6.32;3.00;;;;;;;25.28;37.68;99558.28;4469116;32;34739;-69
2023/06/15 01:00:32;;;;;;;4.85;2.72;;;;;;;25.29;37.80;99562.66;4482799;32;34757;-71
2023/06/15 01:03:04;;;;;;;6.00;3.10;;;;;;;25.28;37.79;99570.03;4482914;32;34472;-71
2023/06/15 01:05:34;;;;;;;;;;;;;;;25.28;37.72;99561.03;4500291;31;33306;-71
2023/06/15 01:08:07;;;;;;;6.00;3.20;;;;;;;25.37;37.47;99563.12;4514850;31;34074;-71
2023/06/15 01:10:35;;;;;;;5.47;3.40;;;;;;;25.32;37.64;99559.44;4514604;31;34000;-70
2023/06/15 01:13:02;;;;;;;6.22;3.03;;;;;;;25.28;37.66;99563.75;4487087;31;34360;-71
2023/06/15 01:15:31;;;;;;;4.85;2.78;;;;;;;25.27;37.84;99553.88;4500076;31;34309;-70
2023/06/15 01:17:59;;;;;;;5.78;3.35;;;;;;;25.26;37.84;99555.78;4500162;31;34006;-71
2023/06/15 01:20:38;;;;;;;5.62;3.03;;;;;;;25.26;37.88;99554.97;4514538;31;34678;-66
2023/06/15 01:23:25;;;;;;;5.32;2.90;;;;;;;25.26;37.92;99549.50;4489066;31;34065;-72
2023/06/15 01:26:01;;;;;;;6.00;3.15;;;;;;;25.29;37.87;99546.28;4502386;31;33190;-69
2023/06/15 01:28:30;;;;;;;5.57;3.00;;;;;;;25.26;37.92;99544.03;4502933;31;34142;-72
2023/06/15 01:31:00;;;;;;;4.65;2.60;;;;;;;25.25;37.95;99545.13;4516315;31;34788;-69
2023/06/15 01:33:30;;;;;;;5.00;2.97;;;;;;;25.25;37.93;99540.47;4489612;31;33921;-72
2023/06/15 01:35:58;;;;;;;6.50;2.90;;;;;;;25.26;37.96;99533.12;4516623;31;33436;-72
2023/06/15 01:38:28;;;;;;;4.82;2.83;;;;;;;25.26;37.99;99546.75;4516573;31;34237;-72
2023/06/15 01:40:56;;;;;;;6.18;2.90;;;;;;;25.25;38.04;99545.13;4502455;31;34759;-72
2023/06/15 01:43:25;;;;;;;5.70;3.12;;;;;;;25.24;38.04;99538.00;4502225;31;33973;-70
2023/06/15 01:45:52;;;;;;;4.37;2.90;;;;;;;25.24;38.08;99540.72;4516637;31;34054;-62
2023/06/15 01:48:20;;;;;;;12.95;3.25;;;;;;;25.25;38.06;99545.94;4502013;31;33464;-71
2023/06/15 01:50:48;;;;;;;5.10;2.60;;;;;;;25.24;38.05;99540.72;4501997;31;34639;-70
2023/06/15 01:53:16;;;;;;;5.07;3.00;;;;;;;25.24;37.97;99546.19;4502169;31;34567;-70
2023/06/15 01:55:43;;;;;;;5.50;3.17;;;;;;;25.23;37.87;99537.19;4501948;31;32912;-71
2023/06/15 01:58:15;;;;;;;4.70;2.92;;;;;;;25.23;37.93;99544.50;4516288;31;34590;-69
2023/06/15 02:00:43;;;;;;;4.05;2.75;;;;;;;25.24;37.92;99551.66;4502424;31;34859;-71
2023/06/15 02:03:11;;;;;;;5.10;2.87;;;;;;;25.23;37.93;99549.97;4501844;31;34025;-67
2023/06/15 02:05:40;;;;;;;4.68;2.65;;;;;;;25.21;37.95;99542.03;4515607;31;34336;-71
2023/06/15 02:08:11;;;;;;;5.10;2.67;;;;;;;25.22;38.04;99545.59;4501967;31;33464;-68
2023/06/15 02:10:39;;;;;;;6.00;3.05;;;;;;;25.21;37.98;99547.50;4485498;31;34098;-71
2023/06/15 02:13:08;;;;;;;4.72;2.90;;;;;;;25.22;37.96;99546.41;4484464;32;33548;-70
2023/06/15 02:15:37;;;;;;;;;;;;;;;25.22;37.97;99545.59;4484806;32;33882;-67
2023/06/15 02:18:11;;;;;;;4.85;3.08;;;;;;;25.31;37.76;99550.41;4484662;32;34258;-71
2023/06/15 02:20:42;;;;;;;5.10;2.70;;;;;;;25.23;37.88;99550.84;4484652;32;33652;-70
2023/06/15 02:23:10;;;;;;;5.07;2.65;;;;;;;25.21;37.88;99552.13;4484703;32;34060;-61
2023/06/15 02:25:38;;;;;;;5.28;2.80;;;;;;;25.20;37.88;99556.78;4484518;32;33600;-67
2023/06/15 02:28:06;;;;;;;6.15;2.90;;;;;;;25.21;37.99;99554.88;4484256;32;34684;-58
2023/06/15 02:30:34;;;;;;;4.60;2.62;;;;;;;25.20;37.90;99554.03;4484134;32;33900;-55
2023/06/15 02:33:04;;;;;;;6.50;3.03;;;;;;;25.19;37.95;99550.47;4484366;32;33385;-67
2023/06/15 02:35:32;;;;;;;5.55;2.85;;;;;;;25.21;37.99;99552.13;4483257;32;33552;-67
2023/06/15 02:37:59;;;;;;;4.65;2.47;;;;;;;25.20;37.94;99551.31;4484422;32;34531;-70
2023/06/15 02:40:27;;;;;;;5.57;2.85;;;;;;;25.20;37.97;99551.31;4470118;32;33635;-69
2023/06/15 02:42:55;;;;;;;5.68;2.97;;;;;;;25.19;38.04;99555.94;4484474;32;33456;-69
2023/06/15 02:45:22;;;;;;;5.57;2.80;;;;;;;25.19;38.07;99546.94;4484401;32;33215;-67
2023/06/15 02:47:51;;;;;;;4.82;2.90;;;;;;;25.18;38.07;99548.84;4484273;32;33846;-70
2023/06/15 02:50:19;;;;;;;4.82;2.92;;;;;;;25.18;38.07;99548.84;4484423;32;33790;-64
2023/06/15 02:52:47;;;;;;;4.53;2.90;;;;;;;25.18;38.07;99546.09;4484597;32;34898;-70
2023/06/15 02:55:15;;;;;;;4.40;2.78;;;;;;;25.18;38.04;99548.84;4484438;32;33371;-68
2023/06/15 02:57:44;;;;;;;6.95;3.00;;;;;;;25.17;38.00;99547.16;4484516;32;33566;-64
2023/06/15 03:00:13;;;;;;;5.12;3.00;;;;;;;25.17;37.98;99547.16;4484413;32;33921;-59
2023/06/15 03:02:43;;;;;;;4.53;2.70;;;;;;;25.17;37.96;99544.41;4484595;32;34661;-65
2023/06/15 03:05:13;;;;;;;5.70;2.50;;;;;;;25.18;37.95;99543.37;4497396;31;33948;-66
2023/06/15 03:07:41;;;;;;;5.87;2.60;;;;;;;25.18;38.02;99545.25;4515786;31;34588;-67
2023/06/15 03:10:10;;;;;;;5.57;3.00;;;;;;;25.17;38.04;99549.88;4516173;31;34064;-70
2023/06/15 03:12:38;;;;;;;5.12;2.47;;;;;;;25.17;38.07;99549.06;4501948;31;34464;-67
2023/06/15 03:15:08;;;;;;;5.90;3.05;;;;;;;25.16;38.04;99542.78;4516055;31;34263;-69
2023/06/15 03:17:36;;;;;;;;;;;;;;;25.17;38.04;99546.31;4516239;31;34903;-62
2023/06/15 03:20:07;;;;;;;4.87;2.60;;;;;;;25.26;37.89;99549.50;4516227;31;35093;-70
2023/06/15 03:22:35;;;;;;;5.85;2.50;;;;;;;25.17;38.02;99551.78;4516037;31;34510;-66
2023/06/15 03:25:03;;;;;;;6.85;2.97;;;;;;;25.16;38.11;99555.59;4515937;31;34167;-67
2023/06/15 03:27:32;;;;;;;4.47;2.80;;;;;;;25.15;38.11;99557.50;4515454;31;34010;-70
2023/06/15 03:30:05;;;;;;;5.47;3.00;;;;;;;25.13;38.03;99559.66;4515929;31;34009;-68
2023/06/15 03:32:33;;;;;;;4.43;2.90;;;;;;;25.14;38.02;99560.50;4515605;31;33881;-69
2023/06/15 03:35:01;;;;;;;7.45;2.80;;;;;;;25.14;38.08;99561.31;4515837;31;34061;-61
2023/06/15 03:37:29;;;;;;;4.55;2.83;;;;;;;25.13;38.10;99559.66;4515546;31;34556;-70
2023/06/15 03:39:59;;;;;;;5.65;2.67;;;;;;;25.15;38.06;99564.88;4515660;31;34035;-66
2023/06/15 03:42:26;;;;;;;6.32;2.95;;;;;;;25.15;38.01;99567.59;4515732;31;34664;-67
2023/06/15 03:44:54;;;;;;;5.72;3.10;;;;;;;25.13;38.10;99570.59;4515991;31;34220;-70
2023/06/15 03:47:22;;;;;;;6.55;2.70;;;;;;;25.14;38.12;99566.78;4515240;31;33582;-70
2023/06/15 03:49:49;;;;;;;4.55;2.90;;;;;;;25.13;38.08;99567.00;4515386;31;34608;-66
2023/06/15 03:52:17;;;;;;;7.00;2.97;;;;;;;25.14;38.16;99568.69;4515919;31;33486;-74
2023/06/15 03:54:45;;;;;;;11.38;3.45;;;;;;;25.14;38.20;99569.50;4515575;31;33436;-74
2023/06/15 03:57:12;;;;;;;12.65;3.35;;;;;;;25.14;38.10;99574.97;4515617;31;34518;-73
2023/06/15 03:59:40;;;;;;;5.80;3.12;;;;;;;25.13;37.92;99570.59;4515474;31;34356;-74
2023/06/15 04:02:08;;;;;;;6.60;3.08;;;;;;;25.13;37.89;99573.31;4515824;31;33833;-74
2023/06/15 04:04:39;;;;;;;16.60;3.05;;;;;;;25.13;37.92;99569.72;4500796;31;34046;-71
2023/06/15 04:07:08;;;;;;;6.43;3.20;;;;;;;25.12;37.97;99574.34;4515382;31;33916;-74
2023/06/15 04:09:36;;;;;;;7.32;3.00;;;;;;;25.12;37.94;99573.53;4512206;31;34656;-74
2023/06/15 04:12:05;;;;;;;6.65;2.97;;;;;;;25.12;37.91;99576.25;4469449;32;33582;-74
2023/06/15 04:14:33;;;;;;;5.47;3.22;;;;;;;25.11;37.88;99577.34;4483930;32;33052;-74
2023/06/15 04:17:01;;;;;;;5.18;2.72;;;;;;;25.11;37.86;99574.63;4483562;32;33925;-73
2023/06/15 04:19:29;;;;;;;4.97;2.78;;;;;;;25.10;37.85;99578.41;4483730;32;34004;-74
2023/06/15 04:21:56;;;;;;;6.35;2.80;;;;;;;25.09;37.84;99576.78;4483897;32;34516;-74
2023/06/15 04:24:24;;;;;;;8.20;3.12;;;;;;;25.08;37.81;99581.37;4483759;32;33012;-75
2023/06/15 04:26:52;;;;;;;7.75;3.20;;;;;;;25.08;37.78;99581.37;4483462;32;33676;-70
2023/06/15 04:29:22;;;;;;;7.47;3.30;;;;;;;25.08;37.78;99581.37;4483013;32;33894;-74
2023/06/15 04:31:54;;;;;;;6.05;3.25;;;;;;;25.07;37.82;99582.44;4482509;32;33570;-74
2023/06/15 04:34:24;;;;;;;6.05;3.17;;;;;;;25.07;37.84;99581.59;4468085;32;34199;-72
2023/06/15 04:36:52;;;;;;;7.00;2.92;;;;;;;25.09;37.79;99587.69;4481468;32;33492;-74
2023/06/15 04:39:25;;;;;;;4.93;2.92;;;;;;;25.07;37.75;99587.91;4481071;32;33886;-74
2023/06/15 04:41:57;;;;;;;7.43;2.95;;;;;;;25.05;37.77;99587.31;4467409;32;33528;-74
2023/06/15 04:44:25;;;;;;;4.97;2.62;;;;;;;25.05;37.76;99592.78;4481098;32;33346;-74
2023/06/15 04:46:53;;;;;;;4.53;2.78;;;;;;;25.04;37.81;99591.13;4481572;32;34605;-74
2023/06/15 04:49:20;;;;;;;4.35;2.78;;;;;;;25.05;37.81;99589.22;4482463;32;33195;-74
2023/06/15 04:51:50;;;;;;;6.32;3.22;;;;;;;25.05;37.81;99592.78;4482869;32;34255;-74
2023/06/15 04:54:17;;;;;;;4.78;2.75;;;;;;;25.05;37.81;99598.22;4483356;32;33351;-74
2023/06/15 04:56:46;;;;;;;5.25;3.22;;;;;;;25.05;37.83;99602.84;4483367;32;33575;-74
2023/06/15 04:59:13;;;;;;;8.55;3.17;;;;;;;25.04;37.83;99596.56;4483806;32;34674;-73
2023/06/15 05:01:41;;;;;;;4.12;2.65;;;;;;;25.04;37.83;99602.03;4485217;32;33952;-73
2023/06/15 05:04:10;;;;;;;4.90;2.92;;;;;;;25.03;37.84;99602.25;4485503;32;33487;-74
2023/06/15 05:06:37;;;;;;;4.78;2.83;;;;;;;25.03;37.85;99600.34;4516292;31;33565;-69
2023/06/15 05:09:05;;;;;;;6.60;2.97;;;;;;;25.03;37.87;99604.97;4516930;31;34784;-73
2023/06/15 05:11:33;;;;;;;5.25;2.78;;;;;;;25.03;37.86;99603.09;4516101;31;33549;-72
2023/06/15 05:14:01;;;;;;;5.45;3.12;;;;;;;25.03;37.88;99599.53;4516849;31;33664;-74
2023/06/15 05:16:29;;;;;;;7.35;2.95;;;;;;;25.01;37.90;99605.25;4517235;31;34692;-73
2023/06/15 05:18:57;;;;;;;4.97;3.33;;;;;;;25.03;37.90;99610.44;4516617;31;33926;-73
2023/06/15 05:21:24;;;;;;;4.50;2.90;;;;;;;25.03;37.89;99615.91;4516726;31;33999;-74
2023/06/15 05:23:52;;;;;;;6.53;2.97;;;;;;;25.02;37.93;99620.53;4516773;31;33649;-73
2023/06/15 05:26:20;;;;;;;5.28;3.10;;;;;;;25.01;37.95;99618.06;4516854;31;34089;-74
2023/06/15 05:28:57;;;;;;;4.25;2.55;;;;;;;25.02;37.95;99627.91;4517155;31;33658;-74
2023/06/15 05:31:25;;;;;;;6.70;3.20;;;;;;;25.02;37.93;99626.00;4516514;31;33621;-74
2023/06/15 05:33:54;;;;;;;4.62;3.05;;;;;;;25.02;37.92;99628.72;4516915;31;33339;-73
2023/06/15 05:36:22;;;;;;;6.28;2.92;;;;;;;25.02;37.94;99626.00;4502269;31;33921;-69
2023/06/15 05:39:09;;;;;;;6.25;3.05;;;;;;;25.01;37.96;99624.34;4516633;31;34771;-72
2023/06/15 05:41:37;;;;;;;4.82;3.00;;;;;;;25.02;37.98;99627.91;4516410;31;34128;-74
2023/06/15 05:44:07;;;;;;;5.05;3.12;;;;;;;25.01;37.98;99629.81;4516888;31;32972;-71
2023/06/15 05:46:35;;;;;;;4.75;3.03;;;;;;;25.01;37.99;99629.81;4516557;31;33961;-71
2023/06/15 05:49:03;;;;;;;5.57;3.15;;;;;;;25.02;38.00;99645.09;4516816;31;34816;-74
2023/06/15 05:51:30;;;;;;;5.68;3.15;;;;;;;25.02;38.02;99642.37;4516735;31;34033;-73
2023/06/15 05:53:58;;;;;;;6.50;3.20;;;;;;;25.01;38.03;99642.63;4516499;31;33200;-74
2023/06/15 05:56:26;;;;;;;6.72;3.50;;;;;;;25.02;37.99;99644.28;4516551;31;33824;-74
2023/06/15 05:58:54;;;;;;;5.93;3.30;;;;;;;25.01;38.03;99645.34;4516810;31;33531;-74
2023/06/15 06:01:21;;;;;;;6.32;3.40;;;;;;;25.01;38.03;99645.34;4491912;31;33268;-74
2023/06/15 06:03:49;;;;;;;4.70;2.95;;;;;;;25.00;38.04;99647.25;4486007;31;31973;-73
2023/06/15 06:06:17;;;;;;;5.50;3.30;;;;;;;25.00;38.07;99650.00;4499826;31;33900;-69
2023/06/15 06:08:46;;;;;;;7.43;3.28;;;;;;;24.99;38.06;99645.56;4500456;31;34751;-73
2023/06/15 06:11:14;;;;;;;5.25;3.03;;;;;;;24.99;38.06;99645.56;4460808;32;34626;-74
2023/06/15 06:13:42;;;;;;;7.28;3.42;;;;;;;25.00;38.05;99647.25;4470483;32;33167;-74
2023/06/15 06:16:10;;;;;;;4.53;2.75;;;;;;;25.00;38.11;99655.44;4484754;32;34167;-73
2023/06/15 06:18:38;;;;;;;5.05;3.10;;;;;;;25.01;38.11;99651.63;4484957;32;33198;-74
2023/06/15 06:21:06;;;;;;;4.87;3.10;;;;;;;25.00;38.08;99649.16;4484699;32;34266;-74
2023/06/15 06:23:36;;;;;;;5.62;3.28;;;;;;;25.00;38.10;99647.25;4484493;32;33251;-73
2023/06/15 06:26:04;;;;;;;5.43;2.92;;;;;;;25.00;38.13;99652.72;4485046;32;33451;-74
2023/06/15 06:28:32;;;;;;;5.05;3.42;;;;;;;24.99;38.08;99651.03;4470711;32;34810;-74
2023/06/15 06:31:00;;;;;;;4.97;3.28;;;;;;;25.00;38.06;99654.62;4483761;32;35006;-74
2023/06/15 06:33:27;;;;;;;5.43;3.35;;;;;;;24.98;38.06;99652.13;4484347;32;32916;-73
2023/06/15 06:35:55;;;;;;;5.55;3.20;;;;;;;24.99;38.07;99658.41;4500384;31;34629;-74
2023/06/15 06:38:22;;;;;;;5.68;3.25;;;;;;;24.99;38.12;99651.03;4516001;31;33553;-74
2023/06/15 06:40:50;;;;;;;6.82;3.15;;;;;;;24.99;38.14;99648.31;4516074;31;34018;-70
2023/06/15 06:43:18;;;;;;;5.97;3.42;;;;;;;24.98;38.19;99648.56;4516039;31;32977;-68
2023/06/15 06:45:45;;;;;;;5.43;3.45;;;;;;;24.98;38.23;99652.13;4515761;31;33732;-68
2023/06/15 06:48:13;;;;;;;5.93;3.12;;;;;;;24.98;38.23;99657.56;4515835;31;34037;-71
2023/06/15 06:50:40;;;;;;;7.28;3.45;;;;;;;24.99;38.22;99653.75;4515748;31;34492;-74
2023/06/15 06:53:08;;;;;;;6.60;3.60;;;;;;;24.99;38.26;99661.94;4501769;31;33188;-74
2023/06/15 06:55:36;;;;;;;6.20;3.25;;;;;;;24.98;38.28;99659.47;4515804;31;34227;-75
2023/06/15 06:58:04;;;;;;;5.40;3.10;;;;;;;24.99;38.25;99659.22;4515807;31;33785;-74
2023/06/15 07:00:31;;;;;;;6.05;3.35;;;;;;;24.99;38.24;99653.75;4494115;31;34018;-74
2023/06/15 07:02:59;;;;;;;7.15;2.95;;;;;;;24.99;38.23;99656.50;4500059;31;34340;-63
2023/06/15 07:05:27;;;;;;;6.18;3.22;;;;;;;24.99;38.23;99659.22;4507458;31;34661;-73
2023/06/15 07:07:54;;;;;;;6.30;3.42;;;;;;;24.99;38.24;99653.75;4515735;31;33856;-66
2023/06/15 07:10:22;;;;;;;5.80;3.22;;;;;;;24.99;38.24;99656.50;4515930;31;33628;-74
2023/06/15 07:12:50;;;;;;;6.25;3.80;;;;;;;25.00;38.23;99658.19;4515705;31;34082;-66
2023/06/15 07:15:17;;;;;;;7.03;3.50;;;;;;;25.01;38.21;99645.34;4515901;31;34647;-73
2023/06/15 07:17:46;;;;;;;5.45;3.35;;;;;;;25.02;38.20;99642.37;4515816;31;34057;-63
2023/06/15 07:20:13;;;;;;;6.57;3.42;;;;;;;25.02;38.20;99649.75;4515699;31;34473;-73
2023/06/15 07:22:42;;;;;;;6.18;3.17;;;;;;;25.03;38.20;99648.66;4515091;31;34184;-64
2023/06/15 07:25:09;;;;;;;6.30;4.15;;;;;;;25.03;38.20;99644.03;4515782;31;33895;-71
2023/06/15 07:27:37;;;;;;;5.62;2.90;;;;;;;25.04;38.20;99653.91;4515649;31;33636;-71
2023/06/15 07:30:05;;;;;;;5.40;3.72;;;;;;;25.05;38.20;99646.53;4501353;31;33787;-62
2023/06/15 07:32:33;;;;;;;6.50;3.65;;;;;;;25.04;38.17;99636.66;4515637;31;33622;-64
2023/06/15 07:35:00;;;;;;;7.28;3.67;;;;;;;25.05;38.02;99639.19;4515687;31;33478;-68
2023/06/15 07:37:29;;;;;;;6.05;3.95;;;;;;;25.06;38.05;99640.00;4515588;31;33971;-66
2023/06/15 07:39:57;;;;;;;7.05;3.80;;;;;;;25.05;37.96;99641.06;4515689;31;33833;-69
2023/06/15 07:42:25;;;;;;;5.93;3.20;;;;;;;25.06;37.94;99635.37;4515538;31;33380;-69
2023/06/15 07:44:52;;;;;;;5.80;3.30;;;;;;;25.07;37.89;99634.31;4515577;31;33496;-70
2023/06/15 07:47:20;;;;;;;5.95;3.50;;;;;;;25.08;37.93;99630.50;4515569;31;33749;-68
2023/06/15 07:49:47;;;;;;;6.50;4.07;;;;;;;25.07;37.94;99628.84;4515104;31;33778;-73
2023/06/15 07:52:15;;;;;;;6.35;3.62;;;;;;;25.08;37.97;99626.97;4515429;31;34350;-71
2023/06/15 07:54:43;;;;;;;5.78;3.47;;;;;;;25.08;37.99;99635.97;4515663;31;33740;-71
2023/06/15 07:57:10;;;;;;;6.78;3.90;;;;;;;25.09;38.00;99632.19;4515401;31;33908;-65
2023/06/15 07:59:38;;;;;;;7.60;4.30;;;;;;;25.11;37.97;99630.03;4515373;31;33936;-67
2023/06/15 08:02:05;;;;;;;6.85;4.03;;;;;;;25.11;37.85;99634.69;4515446;31;33341;-70
2023/06/15 08:04:33;;;;;;;6.65;4.07;;;;;;;25.11;37.82;99631.94;4514853;31;34701;-71
2023/06/15 08:07:01;;;;;;;6.37;3.95;;;;;;;25.12;37.78;99628.97;4515466;31;34982;-66
2023/06/15 08:09:28;;;;;;;6.35;3.58;;;;;;;25.10;37.82;99636.56;4513781;31;34795;-74
2023/06/15 08:11:56;;;;;;;7.03;3.70;;;;;;;25.12;37.68;99634.41;4483356;32;34152;-67
2023/06/15 08:14:24;;;;;;;6.20;3.78;;;;;;;25.12;37.71;99626.22;4488952;31;33519;-73
2023/06/15 08:16:51;;;;;;;6.18;3.95;;;;;;;25.13;37.69;99630.66;4499349;31;33513;-70
2023/06/15 08:19:19;;;;;;;6.43;3.70;;;;;;;25.13;37.54;99627.06;4499219;31;34240;-74
2023/06/15 08:21:47;;;;;;;7.60;3.92;;;;;;;25.14;37.33;99626.84;4499237;31;32981;-74
2023/06/15 08:24:14;;;;;;;6.80;4.12;;;;;;;25.14;36.95;99626.84;4497925;31;33636;-72
2023/06/15 08:26:42;;;;;;;6.50;3.90;;;;;;;25.17;36.86;99622.78;4497369;31;34004;-75
2023/06/15 08:29:10;;;;;;;5.85;3.85;;;;;;;25.15;36.89;99630.41;4498594;31;33789;-74
2023/06/15 08:31:51;;;;;;;6.43;4.15;;;;;;;25.16;36.99;99630.13;4503165;31;32976;-74
2023/06/15 08:34:18;;;;;;;6.78;4.30;;;;;;;25.17;37.07;99631.78;4499845;31;33888;-75
2023/06/15 08:36:46;;;;;;;8.25;4.40;;;;;;;25.17;37.15;99628.25;4469084;32;33097;-74
2023/06/15 08:39:15;;;;;;;6.93;4.07;;;;;;;25.19;36.67;99629.66;4485130;32;34789;-70
2023/06/15 08:41:46;;;;;;;7.78;4.50;;;;;;;25.20;36.62;99635.94;4493695;31;33137;-75
2023/06/15 08:44:14;;;;;;;6.35;3.65;;;;;;;25.19;36.74;99626.13;4502619;31;34416;-75
2023/06/15 08:46:42;;;;;;;6.93;4.30;;;;;;;25.19;36.69;99637.84;4489603;31;34956;-75
2023/06/15 08:49:09;;;;;;;6.85;3.92;;;;;;;25.21;36.70;99634.87;4502514;31;33583;-74
2023/06/15 08:51:38;;;;;;;6.70;4.30;;;;;;;25.21;36.71;99631.31;4502714;31;33181;-75
2023/06/15 08:54:08;;;;;;;7.32;4.20;;;;;;;25.22;36.67;99627.50;4489807;31;34734;-73
2023/06/15 08:56:39;;;;;;;5.70;3.90;;;;;;;25.21;36.76;99628.59;4500860;31;34087;-72
2023/06/15 08:59:06;;;;;;;5.65;3.75;;;;;;;25.21;36.89;99623.12;4500996;31;33272;-73
2023/06/15 09:01:39;;;;;;;5.90;3.70;;;;;;;25.22;36.95;99613.84;4486461;31;33353;-75
2023/06/15 09:04:07;;;;;;;7.68;3.92;;;;;;;25.22;36.94;99613.84;4474874;31;34280;-75
2023/06/15 09:06:35;;;;;;;7.47;4.25;;;;;;;25.22;36.79;99622.88;4485384;31;34126;-75
2023/06/15 09:09:03;;;;;;;6.90;3.90;;;;;;;25.23;36.72;99620.97;4484950;32;34763;-75
2023/06/15 09:11:38;;;;;;;4.93;3.37;;;;;;;25.23;36.61;99621.81;4470764;32;33483;-72
2023/06/15 09:14:11;;;;;;;6.95;4.05;;;;;;;25.24;36.63;99622.66;4484946;32;33947;-69
2023/06/15 09:16:39;;;;;;;6.22;4.18;;;;;;;25.23;36.63;99619.09;4485145;32;33926;-68
2023/06/15 09:19:11;;;;;;;7.25;4.40;;;;;;;25.26;36.74;99623.22;4470762;32;33395;-69
2023/06/15 09:21:40;;;;;;;7.15;4.60;;;;;;;25.27;36.85;99619.41;4471218;32;33361;-70
2023/06/15 09:24:08;;;;;;;9.43;4.95;;;;;;;25.29;36.88;99614.56;4485117;32;33657;-67
2023/06/15 09:26:37;;;;;;;7.30;4.62;;;;;;;25.30;36.81;99610.75;4484700;32;33670;-70
2023/06/15 09:29:07;;;;;;;7.75;4.05;;;;;;;25.29;36.75;99609.91;4487227;31;33718;-69
2023/06/15 09:31:36;;;;;;;7.95;3.87;;;;;;;25.32;36.52;99603.13;4486237;31;33638;-66
2023/06/15 09:34:05;;;;;;;9.00;3.60;;;;;;;25.32;36.35;99611.31;4486150;31;34657;-67
2023/06/15 09:36:34;;;;;;;5.90;4.00;;;;;;;25.33;35.76;99602.91;4500671;31;33610;-67
2023/06/15 09:39:05;;;;;;;5.97;3.97;;;;;;;25.35;35.58;99603.47;4486765;31;33830;-67
2023/06/15 09:41:33;;;;;;;7.80;3.90;;;;;;;25.35;35.48;99608.12;4486250;31;33439;-68
2023/06/15 09:44:03;;;;;;;7.18;4.10;;;;;;;25.35;35.54;99599.91;4500257;31;33837;-67
2023/06/15 09:46:31;;;;;;;7.50;4.00;;;;;;;25.36;35.62;99607.03;4486248;31;34039;-68
2023/06/15 09:48:58;;;;;;;7.53;4.53;;;;;;;25.36;35.57;99602.41;4500354;31;33928;-67
2023/06/15 09:51:27;;;;;;;6.72;4.10;;;;;;;25.40;35.18;99602.75;4485979;31;33592;-67
2023/06/15 09:53:59;;;;;;;8.23;3.85;;;;;;;25.40;34.93;99602.75;4500134;31;34437;-65
2023/06/15 09:56:26;;;;;;;9.43;3.60;;;;;;;25.40;34.65;99595.38;4473715;31;34692;-67
2023/06/15 09:59:02;;;;;;;7.40;3.80;;;;;;;25.40;34.72;99594.56;4474252;31;33691;-68
2023/06/15 10:01:33;;;;;;;5.37;3.60;;;;;;;25.41;34.67;99590.75;4486735;31;32891;-67
2023/06/15 10:04:02;;;;;;;6.72;3.80;;;;;;;25.41;34.77;99588.87;4486853;31;33942;-67
2023/06/15 10:06:30;;;;;;;6.25;4.15;;;;;;;25.44;34.61;99591.09;4484770;31;34099;-67
2023/06/15 10:08:59;;;;;;;7.35;3.72;;;;;;;25.44;34.68;99590.25;4457677;32;33851;-68
2023/06/15 10:11:27;;;;;;;5.70;3.47;;;;;;;25.44;34.75;99590.25;4470018;32;34221;-68
2023/06/15 10:14:18;;;;;;;5.50;3.55;;;;;;;25.45;34.77;99589.19;4470146;32;33544;-69
2023/06/15 10:16:49;;;;;;;6.07;3.67;;;;;;;25.49;34.88;99586.78;4484437;32;33941;-66
2023/06/15 10:19:16;;;;;;;7.55;3.72;;;;;;;25.46;35.00;99579.94;4457731;32;33596;-69
2023/06/15 10:21:44;;;;;;;6.55;3.50;;;;;;;25.49;34.85;99584.88;4444421;32;34058;-67
2023/06/15 10:24:13;;;;;;;6.62;3.72;;;;;;;25.48;34.42;99583.25;4470443;32;34666;-68
2023/06/15 10:26:42;;;;;;;5.47;3.45;;;;;;;25.47;34.32;99581.59;4484500;32;34117;-69
2023/06/15 10:29:16;;;;;;;7.53;3.95;;;;;;;25.50;33.68;99583.81;4490649;31;33823;-69
2023/06/15 10:31:49;;;;;;;5.25;3.45;;;;;;;25.53;33.12;99586.06;4515890;31;33250;-69
2023/06/15 10:34:45;;;;;;;7.05;3.22;;;;;;;25.57;32.42;99587.22;4502191;31;33530;-66
2023/06/15 10:37:24;;;;;;;5.60;3.50;;;;;;;25.57;32.57;99587.22;4502858;31;34700;-68
2023/06/15 10:39:52;;;;;;;7.18;3.67;;;;;;;25.54;32.61;99593.16;4501565;31;33911;-69
2023/06/15 10:42:20;;;;;;;5.35;3.22;;;;;;;25.52;32.66;99587.13;4501569;31;33302;-69
2023/06/15 10:44:57;;;;;;;6.60;3.60;;;;;;;25.53;32.98;99575.13;4516047;31;33515;-70
2023/06/15 10:47:25;;;;;;;5.37;3.08;;;;;;;25.53;32.91;99585.22;4502069;31;33738;-67
2023/06/15 10:49:53;;;;;;;7.35;3.53;;;;;;;25.55;32.60;99586.62;4501660;31;34224;-68
2023/06/15 10:52:21;;;;;;;5.00;3.10;;;;;;;25.53;32.88;99588.78;4501700;31;34137;-68
2023/06/15 10:54:49;;;;;;;4.93;3.35;;;;;;;25.54;33.00;99584.16;4516005;31;33858;-67
2023/06/15 10:57:20;;;;;;;5.97;3.20;;;;;;;25.52;32.96;99576.22;4514857;31;33868;-70
2023/06/15 10:59:51;;;;;;;5.12;3.20;;;;;;;25.55;32.69;99566.69;4487527;31;33058;-71
2023/06/15 11:02:26;;;;;;;5.75;3.60;;;;;;;25.55;32.82;99567.50;4502343;31;33135;-69
2023/06/15 11:05:09;;;;;;;5.40;3.10;;;;;;;25.54;33.00;99571.31;4511151;31;34652;-68
2023/06/15 11:07:38;;;;;;;6.65;3.20;;;;;;;25.56;32.90;99568.34;4499592;31;33916;-68
2023/06/15 11:10:13;;;;;;;7.87;3.50;;;;;;;25.56;32.67;99569.19;4499953;31;34762;-68
2023/06/15 11:12:43;;;;;;;5.75;3.60;;;;;;;25.57;32.47;99572.75;4499897;31;33661;-68
2023/06/15 11:15:12;;;;;;;6.32;3.87;;;;;;;25.56;32.33;99566.44;4485498;31;33395;-68
2023/06/15 11:17:58;;;;;;;6.53;3.50;;;;;;;25.55;32.30;99570.22;4499934;31;34028;-69
2023/06/15 11:20:38;;;;;;;5.75;3.45;;;;;;;25.61;31.97;99572.00;4499813;31;34870;-67
2023/06/15 11:23:11;;;;;;;6.32;3.17;;;;;;;25.61;31.64;99569.28;4500280;31;33599;-68
2023/06/15 11:25:42;;;;;;;5.30;3.53;;;;;;;25.61;31.80;99573.91;4499545;31;34816;-62
2023/06/15 11:28:11;;;;;;;5.95;3.45;;;;;;;25.60;31.67;99566.75;4499844;31;34004;-67
2023/06/15 11:31:01;;;;;;;7.43;3.58;;;;;;;25.61;31.56;99574.72;4514345;31;34113;-63
2023/06/15 11:33:36;;;;;;;5.00;3.10;;;;;;;25.59;31.78;99568.66;4501417;31;34229;-66
2023/06/15 11:36:09;;;;;;;6.07;3.45;;;;;;;25.57;31.94;99570.00;4515410;31;34648;-65
2023/06/15 11:38:37;;;;;;;6.15;3.37;;;;;;;25.59;31.98;99576.03;4515817;31;33897;-67
2023/06/15 11:41:08;;;;;;;6.78;3.42;;;;;;;25.58;31.71;99572.47;4515395;31;34081;-66
2023/06/15 11:43:46;;;;;;;4.82;2.92;;;;;;;25.59;31.73;99563.22;4515380;31;34375;-65